createdAt,value
2022-11-24T00:04:39.935Z,67.4
2022-11-24T00:09:34.723Z,67.3
2022-11-24T00:14:29.406Z,67.5
2022-11-24T00:19:24.157Z,67.6
2022-11-24T00:24:18.831Z,67.6
2022-11-24T00:29:13.445Z,67.7
2022-11-24T00:34:08.062Z,67.8
2022-11-24T00:39:02.719Z,67.8
2022-11-24T00:43:57.350Z,68.2
2022-11-24T00:48:51.989Z,68.3
2022-11-24T00:53:46.796Z,68.4
2022-11-24T00:58:46.541Z,68.4
2022-11-24T01:03:41.055Z,68.7
2022-11-24T01:08:35.673Z,68.9
2022-11-24T01:13:30.211Z,69
2022-11-24T01:18:25.154Z,69
2022-11-24T01:23:20.002Z,69.2
2022-11-24T01:28:14.441Z,69.4
2022-11-24T01:33:09.224Z,69.4
2022-11-24T01:38:04.124Z,69.8
2022-11-24T01:42:58.503Z,70
2022-11-24T01:47:52.634Z,69.9
2022-11-24T01:52:47.528Z,69.8
2022-11-24T01:57:42.297Z,69.8
2022-11-24T02:02:37.009Z,70
2022-11-24T02:07:31.794Z,70.8
2022-11-24T02:12:26.429Z,71.1
2022-11-24T02:17:21.151Z,70.7
2022-11-24T02:22:16.104Z,70.9
2022-11-24T02:27:10.786Z,70.8
2022-11-24T02:32:05.344Z,70.9
2022-11-24T02:37:00.050Z,71.2
2022-11-24T02:41:54.837Z,71.2
2022-11-24T02:46:49.406Z,71.3
2022-11-24T02:51:44.222Z,71.6
2022-11-24T02:56:38.777Z,71.5
2022-11-24T03:01:33.346Z,71.9
2022-11-24T03:06:27.919Z,71.8
2022-11-24T03:11:22.697Z,71.9
2022-11-24T03:16:17.404Z,71.9
2022-11-24T03:21:12.152Z,72
2022-11-24T03:26:06.806Z,72.3
2022-11-24T03:31:01.345Z,72.7
2022-11-24T03:35:55.949Z,72.4
2022-11-24T03:40:50.878Z,72.4
2022-11-24T03:45:46.625Z,72
2022-11-24T03:50:40.106Z,72.3
2022-11-24T03:55:34.546Z,73.2
2022-11-24T04:00:29.013Z,72.6
2022-11-24T04:05:23.624Z,73.1
2022-11-24T04:10:18.393Z,73.2
2022-11-24T04:15:13.319Z,73.2
2022-11-24T04:20:07.891Z,73.1
2022-11-24T04:25:02.371Z,73.1
2022-11-24T04:29:57.057Z,74
2022-11-24T04:34:51.495Z,74.2
2022-11-24T04:39:46.127Z,74.2
2022-11-24T04:44:40.842Z,73.8
2022-11-24T04:49:35.738Z,74
2022-11-24T04:54:30.695Z,74.1
2022-11-24T04:59:25.038Z,74.4
2022-11-24T05:04:20.042Z,74
2022-11-24T05:09:14.624Z,74
2022-11-24T05:14:08.841Z,74.2
2022-11-24T05:19:03.699Z,74.2
2022-11-24T05:23:58.950Z,73.6
2022-11-24T05:28:53.768Z,72.6
2022-11-24T05:33:48.650Z,72
2022-11-24T05:38:43.533Z,71.4
2022-11-24T05:43:37.860Z,70
2022-11-24T05:48:33.103Z,67.8
2022-11-24T05:53:28.317Z,66.4
2022-11-24T05:58:23.016Z,66.6
2022-11-24T06:07:46.753Z,63.6
2022-11-24T06:12:27.202Z,61.8
2022-11-24T06:17:15.891Z,63.2
2022-11-24T06:22:10.185Z,62.7
2022-11-24T06:27:04.426Z,63
2022-11-24T06:31:59.059Z,64.6
2022-11-24T06:36:53.779Z,64
2022-11-24T06:41:48.589Z,64.4
2022-11-24T06:46:43.715Z,64.5
2022-11-24T06:51:38.332Z,63.1
2022-11-24T06:56:32.727Z,63.3
2022-11-24T07:01:27.653Z,63.7
2022-11-24T07:06:22.569Z,63.3
2022-11-24T07:11:17.405Z,63.4
2022-11-24T07:16:12.035Z,62.8
2022-11-24T07:21:05.803Z,61.2
2022-11-24T07:26:03.768Z,60.3
2022-11-24T07:30:54.647Z,60.1
2022-11-24T07:35:49.553Z,59.9
2022-11-24T07:40:44.450Z,59.4
2022-11-24T07:45:39.067Z,60.1
2022-11-24T07:50:33.878Z,60.2
2022-11-24T07:55:28.406Z,59.7
2022-11-24T08:00:23.317Z,59.7
2022-11-24T08:05:18.049Z,60.3
2022-11-24T08:10:12.788Z,61.5
2022-11-24T08:15:10.843Z,61.8
2022-11-24T08:20:02.812Z,62
2022-11-24T08:24:57.465Z,62.2
2022-11-24T08:29:52.258Z,62.3
2022-11-24T08:34:46.985Z,62.2
2022-11-24T08:39:41.744Z,62.4
2022-11-24T08:44:37.163Z,62.5
2022-11-24T08:49:31.222Z,62.7
2022-11-24T08:54:26.136Z,62.7
2022-11-24T08:59:20.862Z,64
2022-11-24T09:04:15.696Z,63.1
2022-11-24T09:09:09.723Z,62.9
2022-11-24T09:14:04.449Z,63.2
2022-11-24T09:18:59.428Z,63.4
2022-11-24T09:23:53.970Z,63.1
2022-11-24T09:28:48.064Z,63.5
2022-11-24T09:33:42.722Z,63.6
2022-11-24T09:38:36.660Z,63.5
2022-11-24T09:43:31.398Z,63.1
2022-11-24T09:48:25.788Z,63
2022-11-24T09:53:19.896Z,64.5
2022-11-24T09:58:14.615Z,64.7
2022-11-24T10:03:09.540Z,64
2022-11-24T10:08:04.488Z,64.1
2022-11-24T10:12:59.182Z,64.3
2022-11-24T10:17:53.834Z,63.9
2022-11-24T10:22:48.697Z,63.9
2022-11-24T10:27:43.716Z,64
2022-11-24T10:32:38.576Z,64
2022-11-24T10:37:33.193Z,63.7
2022-11-24T10:42:27.753Z,63.9
2022-11-24T10:47:22.692Z,64.2
2022-11-24T10:52:16.588Z,64.4
2022-11-24T10:57:10.601Z,64.3
2022-11-24T11:02:05.382Z,64.3
2022-11-24T11:06:59.806Z,64.2
2022-11-24T11:11:54.502Z,64.4
2022-11-24T11:16:49.260Z,64.3
2022-11-24T11:21:44.045Z,64.7
2022-11-24T11:26:38.707Z,64.7
2022-11-24T11:31:33.684Z,64.8
2022-11-24T11:36:28.262Z,64.6
2022-11-24T11:41:23.225Z,65.4
2022-11-24T11:46:17.739Z,65.3
2022-11-24T11:51:27.510Z,65.2
2022-11-24T11:56:06.869Z,65.4
2022-11-24T12:01:01.644Z,65.5
2022-11-24T12:05:56.425Z,65.8
2022-11-24T12:10:51.430Z,65.8
2022-11-24T12:15:46.005Z,66
2022-11-24T12:20:40.774Z,65.7
2022-11-24T12:25:35.539Z,65.9
2022-11-24T12:30:30.258Z,66
2022-11-24T12:35:24.303Z,66
2022-11-24T12:40:18.838Z,66.1
2022-11-24T12:45:13.562Z,66.1
2022-11-24T12:50:08.351Z,66
2022-11-24T12:55:03.022Z,66.1
2022-11-24T12:59:57.661Z,66.4
2022-11-24T13:04:52.437Z,66.4
2022-11-24T13:09:47.092Z,66.2
2022-11-24T13:14:41.933Z,66.6
2022-11-24T13:19:36.726Z,66.6
2022-11-24T13:24:31.251Z,66.1
2022-11-24T13:29:26.008Z,66.4
2022-11-24T13:34:22.580Z,66.4
2022-11-24T13:39:17.118Z,66.4
2022-11-24T13:44:11.499Z,66.5
2022-11-24T13:49:05.537Z,66.4
2022-11-24T13:54:00.347Z,66.4
2022-11-24T13:58:54.909Z,66.7
2022-11-24T14:04:07.460Z,66.4
2022-11-24T14:08:44.202Z,66.7
2022-11-24T14:13:39.074Z,66.3
2022-11-24T14:18:33.741Z,66.6
2022-11-24T14:23:28.194Z,66.4
2022-11-24T14:28:22.791Z,66.6
2022-11-24T14:33:17.222Z,67.2
2022-11-24T14:38:12.003Z,67.5
2022-11-24T14:43:06.181Z,67.6
2022-11-24T14:48:00.829Z,67.6
2022-11-24T14:52:55.471Z,67.9
2022-11-24T14:57:50.167Z,67.9
2022-11-24T15:02:44.576Z,67.3
2022-11-24T15:07:39.214Z,67.3
2022-11-24T15:12:33.917Z,67.3
2022-11-24T15:17:28.660Z,67.2
2022-11-24T15:22:23.064Z,67.2
2022-11-24T15:27:17.611Z,67.1
2022-11-24T15:32:11.635Z,67.1
2022-11-24T15:37:05.909Z,66.8
2022-11-24T15:42:00.580Z,66.7
2022-11-24T15:46:54.859Z,66.5
2022-11-24T15:51:50.031Z,66.1
2022-11-24T15:56:44.866Z,65.6
2022-11-24T16:01:39.725Z,64.7
2022-11-24T16:06:34.544Z,64
2022-11-24T16:11:29.612Z,62.4
2022-11-24T16:16:24.818Z,61.6
2022-11-24T16:21:19.555Z,61.2
2022-11-24T16:26:13.778Z,60.2
2022-11-24T16:31:08.688Z,59.3
2022-11-24T16:36:03.809Z,59.2
2022-11-24T16:40:58.623Z,59.3
2022-11-24T16:45:53.345Z,59.4
2022-11-24T16:50:47.668Z,59.4
2022-11-24T16:55:42.468Z,60
2022-11-24T17:00:36.975Z,60.2
2022-11-24T17:05:31.995Z,60.4
2022-11-24T17:10:26.834Z,60.3
2022-11-24T17:15:42.920Z,59.7
2022-11-24T17:20:15.434Z,59.3
2022-11-24T17:25:09.924Z,59.6
2022-11-24T17:30:04.313Z,59.7
2022-11-24T17:34:59.125Z,59.6
2022-11-24T17:40:12.817Z,60
2022-11-24T17:44:48.969Z,60.7
2022-11-24T17:49:43.649Z,60.9
2022-11-24T17:54:46.208Z,61.3
2022-11-24T17:59:32.075Z,61.2
2022-11-24T18:04:27.007Z,61.2
2022-11-24T18:09:22.024Z,61
2022-11-24T18:14:17.014Z,60.5
2022-11-24T18:19:11.962Z,61.7
2022-11-24T18:24:06.870Z,61.1
2022-11-24T18:29:02.087Z,60.6
2022-11-24T18:33:57.503Z,60.3
2022-11-24T18:38:52.496Z,59.7
2022-11-24T18:43:47.439Z,59.4
2022-11-24T18:48:42.390Z,59.3
2022-11-24T18:53:37.532Z,58.3
2022-11-24T18:58:32.314Z,57.6
2022-11-24T19:03:27.217Z,57.7
2022-11-24T19:08:21.753Z,57.6
2022-11-24T19:13:16.712Z,57.1
2022-11-24T19:18:10.751Z,57.6
2022-11-24T19:23:05.598Z,57.9
2022-11-24T19:28:00.596Z,57.8
2022-11-24T19:32:55.403Z,58.3
2022-11-24T19:37:49.989Z,58.4
2022-11-24T19:42:44.046Z,58.6
2022-11-24T19:47:38.816Z,58.7
2022-11-24T19:52:33.479Z,58.6
2022-11-24T19:57:28.252Z,58.9
2022-11-24T20:02:23.196Z,59
2022-11-24T20:07:17.049Z,59.4
2022-11-24T20:12:11.743Z,59.5
2022-11-24T20:17:06.654Z,59.4
2022-11-24T20:22:00.620Z,60.1
2022-11-24T20:26:55.673Z,60.2
2022-11-24T20:31:50.418Z,60.2
2022-11-24T20:36:44.707Z,59.9
2022-11-24T20:41:39.684Z,59.8
2022-11-24T20:46:34.448Z,60.2
2022-11-24T20:51:28.615Z,60.4
2022-11-24T20:56:23.104Z,60.5
2022-11-24T21:01:16.964Z,60.8
2022-11-24T21:06:11.741Z,60.7
2022-11-24T21:11:06.524Z,61.2
2022-11-24T21:16:00.744Z,61.8
2022-11-24T21:20:55.450Z,62
2022-11-24T21:25:50.405Z,62
2022-11-24T21:30:45.176Z,62.6
2022-11-24T21:35:39.849Z,62.5
2022-11-24T21:40:34.465Z,62.8
2022-11-24T21:45:29.358Z,63
2022-11-24T21:50:24.313Z,63
2022-11-24T21:55:18.394Z,63.3
2022-11-24T22:00:13.280Z,63.2
2022-11-24T22:05:07.329Z,63.9
2022-11-24T22:10:02.110Z,62.4
2022-11-24T22:14:56.791Z,61.6
2022-11-24T22:19:51.267Z,62.4
2022-11-24T22:24:45.917Z,62.7
2022-11-24T22:29:39.806Z,62.8
2022-11-24T22:34:34.413Z,62.9
2022-11-24T22:39:28.771Z,63.6
2022-11-24T22:44:23.421Z,64.3
2022-11-24T22:49:17.910Z,64.7
2022-11-24T22:54:12.259Z,64.7
2022-11-24T22:59:07.084Z,64.8
2022-11-24T23:04:01.014Z,65.1
2022-11-24T23:08:55.371Z,65.1
2022-11-24T23:13:50.164Z,65.2
2022-11-24T23:18:45.769Z,65.3
2022-11-24T23:23:39.875Z,65.3
2022-11-24T23:28:34.621Z,66.6
2022-11-24T23:33:29.430Z,65.7
2022-11-24T23:38:24.094Z,65.7
2022-11-24T23:43:18.801Z,66
2022-11-24T23:48:12.577Z,66.1
2022-11-24T23:53:07.225Z,66.3
2022-11-24T23:58:02.086Z,66.2
